createdAt,value
2022-08-08T00:02:03.035Z,1.15
2022-08-08T00:04:30.274Z,1.10
2022-08-08T00:07:20.091Z,1.17
2022-08-08T00:52:19.605Z,0.90
2022-08-08T00:55:10.582Z,0.70
2022-08-08T00:57:57.890Z,0.80
2022-08-08T01:00:34.602Z,0.80
2022-08-08T01:04:01.222Z,0.90
2022-08-08T01:06:27.657Z,0.90
2022-08-08T01:08:57.859Z,0.80
2022-08-08T01:11:30.973Z,0.90
2022-08-08T01:14:54.600Z,0.60
2022-08-08T01:17:34.967Z,1.05
2022-08-08T01:20:36.683Z,0.70
2022-08-08T01:24:06.377Z,0.70
2022-08-08T01:26:24.112Z,0.80
2022-08-08T01:29:12.276Z,0.70
2022-08-08T01:32:15.042Z,0.70
2022-08-08T01:34:59.278Z,0.80
2022-08-08T01:37:58.289Z,0.70
2022-08-08T01:40:47.002Z,0.90
2022-08-08T01:43:19.963Z,0.68
2022-08-08T01:45:56.536Z,0.60
2022-08-08T01:48:31.148Z,0.60
2022-08-08T03:33:55.568Z,0.90
2022-08-08T03:36:20.036Z,0.68
2022-08-08T03:39:15.056Z,0.60
2022-08-08T03:42:28.362Z,0.70
2022-08-08T03:44:38.625Z,0.50
2022-08-08T03:47:19.266Z,0.50
2022-08-08T03:50:00.233Z,0.70
2022-08-08T03:52:35.511Z,0.45
2022-08-08T03:55:10.648Z,0.50
2022-08-08T03:58:31.806Z,0.50
2022-08-08T04:00:56.452Z,0.70
2022-08-08T04:03:59.130Z,0.70
2022-08-08T04:06:29.597Z,0.80
2022-08-08T04:09:08.816Z,0.70
2022-08-08T04:11:58.568Z,0.50
2022-08-08T04:14:35.661Z,0.77
2022-08-08T04:19:45.645Z,0.60
2022-08-08T04:22:16.752Z,0.52
2022-08-08T04:24:50.036Z,0.80
2022-08-08T04:28:02.723Z,0.70
2022-08-08T04:30:18.169Z,0.80
2022-08-08T04:32:50.581Z,0.75
2022-08-08T04:35:23.160Z,1.42
2022-08-08T04:37:53.965Z,0.80
2022-08-08T04:40:25.360Z,0.40
2022-08-08T04:42:57.496Z,0.50
2022-08-08T04:45:28.800Z,0.47
2022-08-08T04:48:01.669Z,0.80
2022-08-08T04:50:37.674Z,0.50
2022-08-08T04:53:52.340Z,0.50
2022-08-08T04:55:59.044Z,0.40
2022-08-08T04:58:29.511Z,0.45
2022-08-08T05:00:59.458Z,0.60
2022-08-08T05:04:10.215Z,0.60
2022-08-08T05:06:28.186Z,0.60
2022-08-08T05:09:03.023Z,0.50
2022-08-08T05:11:39.524Z,0.50
2022-08-08T05:14:12.360Z,0.70
2022-08-08T05:16:53.187Z,0.50
2022-08-08T05:20:08.911Z,0.50
2022-08-08T05:22:19.085Z,0.70
2022-08-08T05:24:49.417Z,0.50
2022-08-08T05:27:19.611Z,0.50
2022-08-08T05:29:51.864Z,0.70
2022-08-08T05:32:24.646Z,0.57
2022-08-08T05:35:04.755Z,0.60
2022-08-08T05:37:52.658Z,0.60
2022-08-08T05:40:28.751Z,0.50
2022-08-08T05:43:17.185Z,0.63
2022-08-08T05:46:03.571Z,0.55
2022-08-08T05:48:36.122Z,0.50
2022-08-08T05:51:13.267Z,0.50
2022-08-08T05:54:24.050Z,0.60
2022-08-08T05:56:42.595Z,0.50
2022-08-08T06:00:00.259Z,0.50
2022-08-08T06:02:43.645Z,0.60
2022-08-08T06:05:24.379Z,0.50
2022-08-08T06:08:09.168Z,0.50
2022-08-08T06:13:12.656Z,0.52
2022-08-08T06:15:50.563Z,0.50
2022-08-08T06:18:24.656Z,0.60
2022-08-08T06:21:11.263Z,0.50
2022-08-08T06:24:04.688Z,0.60
2022-08-08T06:26:50.274Z,0.50
2022-08-08T06:29:59.336Z,0.50
2022-08-08T06:32:24.728Z,0.50
2022-08-08T06:36:03.798Z,0.50
2022-08-08T06:37:56.216Z,0.70
2022-08-08T06:40:29.017Z,0.60
2022-08-08T06:43:00.153Z,0.90
2022-08-08T06:45:32.032Z,0.50
2022-08-08T06:48:04.417Z,0.50
2022-08-08T06:50:38.479Z,0.50
2022-08-08T06:53:17.310Z,0.65
2022-08-08T06:56:02.125Z,0.70
2022-08-08T06:58:34.326Z,0.50
2022-08-08T07:01:24.563Z,0.60
2022-08-08T07:04:37.066Z,0.80
2022-08-08T07:07:13.161Z,1.00
2022-08-08T07:09:56.655Z,0.77
2022-08-08T07:12:37.493Z,0.73
2022-08-08T07:15:23.325Z,0.70
2022-08-08T07:18:34.583Z,0.90
2022-08-08T07:20:51.752Z,0.70
2022-08-08T07:24:01.844Z,1.00
2022-08-08T07:26:32.661Z,0.85
2022-08-08T07:29:05.642Z,0.98
2022-08-08T07:31:36.563Z,1.00
2022-08-08T07:34:08.695Z,0.95
2022-08-08T07:36:48.300Z,0.85
2022-08-08T07:39:29.337Z,0.80
2022-08-08T07:42:05.473Z,1.15
2022-08-08T07:44:40.266Z,0.80
2022-08-08T07:47:11.705Z,0.60
2022-08-08T07:49:41.768Z,1.10
2022-08-08T07:52:23.149Z,1.20
2022-08-08T07:55:00.031Z,2.00
2022-08-08T07:57:48.304Z,2.10
2022-08-08T08:00:20.010Z,1.30
2022-08-08T08:03:02.587Z,1.00
2022-08-08T08:05:35.976Z,1.45
2022-08-08T08:08:07.867Z,1.30
2022-08-08T08:10:40.397Z,1.10
2022-08-08T08:16:03.844Z,2.65
2022-08-08T08:18:55.998Z,2.00
2022-08-08T08:21:44.782Z,1.90
2022-08-08T08:24:19.296Z,2.38
2022-08-08T08:26:52.946Z,1.90
2022-08-08T08:29:27.968Z,2.28
2022-08-08T08:32:05.441Z,2.47
2022-08-08T08:34:43.151Z,2.67
2022-08-08T08:37:20.631Z,3.28
2022-08-08T08:40:02.089Z,3.58
2022-08-08T08:42:35.635Z,3.10
2022-08-08T08:45:23.113Z,3.17
2022-08-08T08:47:58.388Z,4.68
2022-08-08T08:50:33.520Z,3.20
2022-08-08T08:53:54.227Z,3.05
2022-08-08T08:56:01.168Z,3.13
2022-08-08T08:59:01.388Z,2.75
2022-08-08T09:01:34.551Z,2.38
2022-08-08T09:04:30.929Z,2.85
2022-08-08T09:07:01.874Z,2.20
2022-08-08T09:09:40.266Z,2.40
2022-08-08T09:12:21.880Z,2.30
2022-08-08T09:14:54.537Z,1.80
2022-08-08T09:17:41.468Z,1.38
2022-08-08T09:22:05.386Z,1.17
2022-08-08T09:23:11.182Z,1.00
2022-08-08T09:25:57.831Z,0.90
2022-08-08T09:28:37.699Z,0.88
2022-08-08T09:31:17.269Z,0.90
2022-08-08T09:34:07.882Z,1.00
2022-08-08T09:36:51.891Z,1.15
2022-08-08T09:39:33.237Z,1.35
2022-08-08T09:42:20.741Z,1.10
2022-08-08T09:44:58.238Z,1.60
2022-08-08T09:48:04.143Z,1.65
2022-08-08T09:50:28.482Z,1.50
2022-08-08T09:53:13.938Z,1.50
2022-08-08T09:56:03.337Z,1.42
2022-08-08T09:58:44.713Z,1.48
2022-08-08T10:01:59.028Z,1.83
2022-08-08T10:04:07.955Z,1.38
2022-08-08T10:06:45.723Z,1.40
2022-08-08T10:09:59.154Z,1.30
2022-08-08T10:12:54.084Z,1.00
2022-08-08T10:15:29.290Z,1.10
2022-08-08T10:18:10.424Z,1.40
2022-08-08T10:20:57.450Z,1.50
2022-08-08T10:23:49.581Z,1.75
2022-08-08T10:26:56.638Z,1.73
2022-08-08T10:29:22.767Z,1.67
2022-08-08T10:32:20.612Z,1.35
2022-08-08T10:34:58.859Z,1.30
2022-08-08T10:37:34.406Z,1.58
2022-08-08T10:40:15.853Z,1.95
2022-08-08T10:42:48.130Z,1.90
2022-08-08T10:45:18.666Z,1.83
2022-08-08T10:47:55.801Z,1.60
2022-08-08T10:50:33.682Z,1.98
2022-08-08T10:53:07.538Z,2.20
2022-08-08T10:55:46.394Z,3.13
2022-08-08T10:58:17.232Z,2.85
2022-08-08T11:00:53.149Z,3.20
2022-08-08T11:03:36.427Z,2.85
2022-08-08T11:06:22.950Z,2.88
2022-08-08T11:09:02.723Z,6.32
2022-08-08T11:12:04.686Z,5.18
2022-08-08T11:14:34.732Z,3.53
2022-08-08T11:17:05.828Z,3.33
2022-08-08T11:19:38.937Z,3.03
2022-08-08T11:22:10.535Z,3.13
2022-08-08T11:24:41.695Z,3.10
2022-08-08T11:27:19.458Z,3.03
2022-08-08T11:30:20.432Z,2.80
2022-08-08T11:32:42.827Z,2.90
2022-08-08T11:35:27.539Z,2.72
2022-08-08T11:38:38.480Z,2.42
2022-08-08T11:40:59.057Z,2.30
2022-08-08T11:43:39.305Z,2.20
2022-08-08T11:46:18.147Z,2.17
2022-08-08T11:48:49.472Z,1.80
2022-08-08T11:51:38.968Z,1.60
2022-08-08T11:54:32.116Z,2.13
2022-08-08T11:57:14.155Z,1.33
2022-08-08T12:00:01.393Z,2.47
2022-08-08T12:02:34.562Z,2.67
2022-08-08T12:05:13.293Z,2.08
2022-08-08T12:07:51.440Z,2.50
2022-08-08T12:10:24.037Z,3.00
2022-08-08T12:13:03.051Z,3.35
2022-08-08T12:15:41.856Z,3.50
2022-08-08T12:18:21.342Z,3.03
2022-08-08T12:20:55.025Z,2.72
2022-08-08T12:35:54.475Z,5.45
2022-08-08T12:38:30.450Z,4.93
2022-08-08T12:41:05.800Z,4.57
2022-08-08T12:44:00.686Z,3.70
2022-08-08T12:46:31.503Z,2.78
2022-08-08T12:49:25.410Z,2.60
2022-08-08T12:51:58.418Z,4.57
2022-08-08T12:54:35.939Z,3.85
2022-08-08T12:57:23.436Z,4.20
2022-08-08T13:00:05.418Z,4.55
2022-08-08T13:02:51.486Z,4.25
2022-08-08T13:05:26.856Z,4.20
2022-08-08T13:08:22.128Z,4.40
2022-08-08T13:11:00.385Z,4.40
2022-08-08T13:13:35.244Z,4.47
2022-08-08T13:16:25.866Z,4.45
2022-08-08T13:19:05.600Z,5.45
2022-08-08T13:21:58.222Z,9.63
2022-08-08T13:24:39.790Z,16.90
2022-08-08T13:27:17.206Z,15.05
2022-08-08T13:29:56.108Z,16.05
2022-08-08T13:32:28.835Z,14.23
2022-08-08T13:35:02.042Z,7.20
2022-08-08T13:38:03.250Z,7.07
2022-08-08T13:40:27.272Z,8.38
2022-08-08T13:42:58.584Z,8.13
2022-08-08T13:45:30.864Z,7.45
2022-08-08T13:48:04.395Z,8.00
2022-08-08T13:50:49.106Z,10.10
2022-08-08T13:53:36.327Z,9.88
2022-08-08T13:56:11.544Z,14.68
2022-08-08T13:59:02.011Z,17.70
2022-08-08T14:01:53.076Z,14.65
2022-08-08T14:04:24.451Z,9.32
2022-08-08T14:07:05.692Z,8.75
2022-08-08T14:10:05.096Z,9.57
2022-08-08T14:12:36.117Z,9.35
2022-08-08T14:15:07.768Z,10.10
2022-08-08T14:17:59.039Z,9.55
2022-08-08T14:20:56.526Z,9.30
2022-08-08T14:24:03.891Z,6.35
2022-08-08T14:26:29.024Z,6.35
2022-08-08T14:29:06.120Z,6.13
2022-08-08T14:32:11.881Z,5.82
2022-08-08T14:34:45.913Z,5.35
2022-08-08T14:37:18.653Z,5.40
2022-08-08T14:39:54.197Z,6.03
2022-08-08T14:42:55.113Z,8.10
2022-08-08T14:45:33.525Z,9.65
2022-08-08T14:48:34.223Z,8.00
2022-08-08T14:51:11.757Z,5.45
2022-08-08T14:53:54.296Z,5.15
2022-08-08T14:56:25.788Z,4.45
2022-08-08T14:58:57.013Z,4.35
2022-08-08T15:01:40.757Z,5.20
2022-08-08T15:04:11.576Z,5.20
2022-08-08T15:06:44.474Z,5.63
2022-08-08T15:09:15.477Z,7.05
2022-08-08T15:11:53.273Z,8.55
2022-08-08T15:14:26.670Z,8.73
2022-08-08T15:16:57.324Z,8.30
2022-08-08T15:19:28.064Z,9.25
2022-08-08T15:21:59.099Z,8.15
2022-08-08T15:24:31.315Z,7.65
2022-08-08T15:27:19.936Z,7.57
2022-08-08T15:29:52.676Z,7.50
2022-08-08T15:32:27.360Z,8.48
2022-08-08T15:35:00.413Z,6.30
2022-08-08T15:37:31.740Z,5.00
2022-08-08T15:40:01.744Z,4.45
2022-08-08T15:42:33.094Z,7.07
2022-08-08T15:45:04.143Z,7.47
2022-08-08T15:47:34.130Z,7.88
2022-08-08T15:50:06.965Z,8.75
2022-08-08T15:52:49.691Z,7.10
2022-08-08T15:55:20.464Z,6.05
2022-08-08T15:57:52.415Z,4.85
2022-08-08T16:00:27.802Z,3.72
2022-08-08T16:02:59.328Z,3.00
2022-08-08T16:05:35.289Z,3.15
2022-08-08T16:08:09.509Z,3.90
2022-08-08T16:13:08.885Z,4.22
2022-08-08T16:13:45.966Z,5.22
2022-08-08T16:16:18.559Z,6.22
2022-08-08T16:18:57.401Z,5.65
2022-08-08T16:21:32.310Z,4.28
2022-08-08T16:24:04.126Z,4.45
2022-08-08T16:26:36.076Z,6.72
2022-08-08T16:29:15.541Z,6.65
2022-08-08T16:31:49.924Z,6.07
2022-08-08T16:34:22.233Z,5.50
2022-08-08T16:36:55.307Z,4.32
2022-08-08T16:40:02.431Z,4.03
2022-08-08T16:42:18.895Z,4.63
2022-08-08T16:44:54.413Z,4.82
2022-08-08T16:47:40.054Z,5.25
2022-08-08T16:50:20.118Z,5.00
2022-08-08T16:55:05.140Z,3.70
2022-08-08T16:55:55.915Z,4.10
2022-08-08T16:58:32.607Z,3.63
2022-08-08T17:01:06.037Z,3.40
2022-08-08T17:03:59.055Z,3.33
2022-08-08T17:06:36.149Z,3.10
2022-08-08T17:09:15.330Z,3.95
2022-08-08T17:11:49.242Z,4.03
2022-08-08T17:14:27.278Z,4.80
2022-08-08T17:17:01.455Z,4.50
2022-08-08T17:19:40.908Z,4.88
2022-08-08T17:22:13.256Z,4.57
2022-08-08T17:24:53.522Z,4.32
2022-08-08T17:27:29.226Z,5.28
2022-08-08T17:30:27.206Z,4.35
2022-08-08T17:34:48.042Z,4.32
2022-08-08T17:35:56.015Z,1.65
2022-08-08T17:38:37.404Z,1.08
2022-08-08T17:41:07.803Z,1.50
2022-08-08T17:44:01.082Z,1.67
2022-08-08T17:46:47.716Z,1.23
2022-08-08T17:49:28.375Z,0.93
2022-08-08T17:51:58.718Z,0.82
2022-08-08T17:54:29.010Z,0.70
2022-08-08T17:56:59.203Z,0.88
2022-08-08T17:59:30.600Z,0.90
2022-08-08T18:02:16.406Z,1.00
2022-08-08T18:04:50.868Z,0.75
2022-08-08T18:08:01.963Z,1.10
2022-08-08T18:10:10.761Z,0.90
2022-08-08T18:12:40.722Z,1.15
2022-08-08T18:15:13.167Z,1.33
2022-08-08T18:18:10.000Z,1.00
2022-08-08T18:20:37.203Z,1.17
2022-08-08T18:23:21.907Z,0.77
2022-08-08T18:25:53.797Z,0.73
2022-08-08T18:28:25.565Z,0.82
2022-08-08T18:30:55.740Z,1.00
2022-08-08T18:34:10.706Z,0.70
2022-08-08T18:36:18.978Z,0.80
2022-08-08T18:38:53.866Z,0.93
2022-08-08T18:41:51.698Z,0.90
2022-08-08T18:44:13.733Z,0.90
2022-08-08T18:46:54.356Z,0.70
2022-08-08T18:49:32.350Z,0.70
2022-08-08T18:52:18.117Z,0.70
2022-08-08T18:54:59.297Z,0.65
2022-08-08T18:57:36.904Z,0.63
2022-08-08T19:00:16.474Z,0.68
2022-08-08T19:02:56.187Z,0.70
2022-08-08T19:05:34.335Z,1.00
2022-08-08T19:08:24.688Z,0.60
2022-08-08T19:11:01.346Z,0.70
2022-08-08T19:13:53.661Z,0.70
2022-08-08T19:16:28.464Z,0.80
2022-08-08T19:19:03.326Z,0.70
2022-08-08T19:21:48.926Z,0.60
2022-08-08T19:24:39.246Z,0.60
2022-08-08T19:27:11.182Z,0.70
2022-08-08T19:29:46.084Z,0.77
2022-08-08T19:32:21.691Z,0.85
2022-08-08T19:34:55.063Z,0.98
2022-08-08T19:37:43.845Z,0.81
2022-08-08T19:40:17.795Z,0.80
2022-08-08T19:42:52.160Z,0.80
2022-08-08T19:45:59.773Z,0.93
2022-08-08T19:48:28.653Z,1.00
2022-08-08T19:51:01.364Z,0.80
2022-08-08T19:53:53.067Z,0.73
2022-08-08T20:12:32.039Z,2.55
2022-08-08T20:15:14.893Z,2.10
2022-08-08T20:17:48.167Z,1.50
2022-08-08T20:20:20.674Z,1.05
2022-08-08T20:22:55.903Z,1.30
2022-08-08T20:25:29.841Z,2.80
2022-08-08T20:28:08.022Z,2.60
2022-08-08T20:30:56.123Z,2.40
2022-08-08T20:34:30.281Z,1.80
2022-08-08T20:36:22.371Z,1.88
2022-08-08T20:38:52.421Z,1.80
2022-08-08T20:41:22.364Z,1.73
2022-08-08T20:43:54.109Z,1.90
2022-08-08T20:46:29.368Z,2.50
2022-08-08T20:48:59.923Z,1.63
2022-08-08T20:51:32.464Z,0.75
2022-08-08T20:54:13.957Z,0.70
2022-08-08T20:57:05.706Z,0.88
2022-08-08T20:59:41.200Z,1.00
2022-08-08T21:02:12.494Z,0.80
2022-08-08T21:04:47.643Z,0.90
2022-08-08T21:07:47.348Z,1.02
2022-08-08T21:10:13.209Z,0.77
2022-08-08T21:37:53.812Z,0.90
2022-08-08T21:40:31.464Z,0.90
2022-08-08T21:43:03.056Z,1.10
2022-08-08T21:48:00.745Z,1.30
2022-08-08T21:48:35.187Z,1.20
2022-08-08T21:51:13.378Z,1.20
2022-08-08T21:54:31.839Z,1.58
2022-08-08T21:56:42.134Z,1.25
2022-08-08T21:59:15.144Z,1.30
2022-08-08T22:01:45.631Z,1.10
2022-08-08T22:04:22.589Z,1.10
2022-08-08T22:06:55.404Z,1.15
2022-08-08T22:09:37.563Z,1.13
2022-08-08T22:12:15.147Z,1.40
2022-08-08T22:17:19.117Z,1.15
2022-08-08T22:20:11.548Z,1.10
2022-08-08T22:22:40.069Z,1.05
2022-08-08T22:25:17.786Z,0.90
2022-08-08T22:28:02.611Z,0.90
2022-08-08T22:30:53.214Z,0.90
2022-08-08T22:34:12.796Z,1.00
2022-08-08T22:36:13.467Z,1.00
2022-08-08T22:38:48.127Z,1.02
2022-08-08T22:41:21.409Z,0.80
2022-08-08T22:44:05.732Z,1.00
2022-08-08T22:46:38.968Z,0.90
2022-08-08T22:49:10.006Z,0.88
2022-08-08T22:51:45.752Z,0.80
2022-08-08T22:54:30.508Z,0.90
2022-08-08T22:57:11.482Z,1.02
2022-08-08T22:59:59.105Z,0.85
2022-08-08T23:02:30.535Z,0.80
2022-08-08T23:05:05.415Z,0.80
2022-08-08T23:07:51.086Z,0.70
2022-08-08T23:10:25.448Z,0.82
2022-08-08T23:12:57.165Z,1.05
2022-08-08T23:16:42.199Z,0.98
2022-08-08T23:18:18.583Z,0.90
2022-08-08T23:20:54.824Z,0.90
2022-08-08T23:23:25.099Z,0.90
2022-08-08T23:25:54.928Z,0.90
2022-08-08T23:28:27.642Z,1.00
2022-08-08T23:30:57.537Z,0.90
2022-08-08T23:34:18.416Z,1.00
2022-08-08T23:36:26.066Z,0.90
2022-08-08T23:38:58.180Z,1.02
2022-08-08T23:41:29.310Z,1.00
2022-08-08T23:43:59.340Z,0.80
2022-08-08T23:49:08.548Z,0.90
2022-08-08T23:49:23.862Z,0.95
2022-08-08T23:52:04.515Z,0.77
2022-08-08T23:54:43.454Z,1.00
2022-08-08T23:57:39.322Z,1.00
